Sea Cloud — 9HOM2 — position and weather

sailwx.info

Track history (hours):
 
Tides and Currents Weather Stations Pressure Air Temp Water Temp Dewpoint Dewpoint Depression Visibility Wind Speed Wind Dir Waves Ship Positions

Sea Cloud

Ship's website: http://www.seacloud.com/en/the-ships/sea-cloud.html

Last reported at 2018-Jul-22 16:22 UTC. Time now 2018-Jul-22 16:41 UTC.
Position N 41°14' E 012°48'.

Length 110 m; draft 5.2 m.

Type: Ship. MMSI: 256084000.

Date/timePositionNaut miles runAvg speedWind from/ knotsBaromVisibWave heightAir tempDewpointWater temp
2018-Jul-22 16:22N 41°14' E 012°48'19 8.3
2018-Jul-22 14:04N 41°09' E 013°12'0 3.5
2018-Jul-22 13:59N 41°09' E 013°12'29 3.1
2018-Jul-22 04:39N 40°41' E 013°02'210.2
2018-Jul-22 04:27N 40°40' E 013°03'17 9.8
2018-Jul-22 02:44N 40°35' E 013°25'2 9.6
2018-Jul-22 02:30N 40°35' E 013°28'5 9.6
2018-Jul-22 02:00N 40°34' E 013°34'5 9.6
2018-Jul-22 01:30N 40°33' E 013°40'5 9.6
2018-Jul-22 00:59N 40°32' E 013°46'5 9.5
2018-Jul-22 00:30N 40°32' E 013°52'5 9.8
2018-Jul-22 00:00N 40°31' E 013°59'510.1
2018-Jul-21 23:30N 40°30' E 014°05'510.5
2018-Jul-21 23:00N 40°30' E 014°12'510.4
2018-Jul-21 22:30N 40°31' E 014°19'510.8
2018-Jul-21 22:00N 40°33' E 014°25'511.0
2018-Jul-21 21:30N 40°35' E 014°32'3 0.4
2018-Jul-21 13:55N 40°36' E 014°35'4 9.4
2018-Jul-21 13:30N 40°35' E 014°31'5 9.5
2018-Jul-21 13:00N 40°33' E 014°25'5 9.5
2018-Jul-21 12:30N 40°33' E 014°19'4 7.2
2018-Jul-21 12:00N 40°36' E 014°18'4 8.3
2018-Jul-21 11:30N 40°39' E 014°21'1 2.4
2018-Jul-21 10:53N 40°38' E 014°23'0 0.0
2018-Jul-21 10:05N 40°38' E 014°23'0 0.0
2018-Jul-21 09:53N 40°38' E 014°23'0 0.0
2018-Jul-21 09:23N 40°38' E 014°23'0 0.0
2018-Jul-21 08:53N 40°38' E 014°23'0 0.0
2018-Jul-21 08:23N 40°38' E 014°23'0 0.1
2018-Jul-21 07:59N 40°38' E 014°23'0 0.0
2018-Jul-21 07:29N 40°38' E 014°23'0 0.0
2018-Jul-21 06:41N 40°38' E 014°23'0 0.1
2018-Jul-21 06:29N 40°38' E 014°23'0 0.0
2018-Jul-21 05:59N 40°38' E 014°23'0 0.0
2018-Jul-21 05:29N 40°38' E 014°23'0 0.0
2018-Jul-21 04:59N 40°38' E 014°23'0 0.0
2018-Jul-21 04:29N 40°38' E 014°23'0 0.0
2018-Jul-21 03:59N 40°38' E 014°23'0 0.0
2018-Jul-21 03:29N 40°38' E 014°23'0 0.0
2018-Jul-21 02:59N 40°38' E 014°23'0 0.0
2018-Jul-21 02:29N 40°38' E 014°23'0 0.0
2018-Jul-21 01:59N 40°38' E 014°23'0 0.0
2018-Jul-21 01:29N 40°38' E 014°23'0 0.0
2018-Jul-21 00:59N 40°38' E 014°23'0 0.1
2018-Jul-21 00:29N 40°38' E 014°23'0 0.0
2018-Jul-20 23:59N 40°38' E 014°23'0 0.0
2018-Jul-20 23:29N 40°38' E 014°23'0 0.0
2018-Jul-20 22:53N 40°38' E 014°23'0 0.0
2018-Jul-20 22:29N 40°38' E 014°23'0 0.0
2018-Jul-20 21:53N 40°38' E 014°23'0 0.0
2018-Jul-20 21:26N 40°38' E 014°23'0 0.0
2018-Jul-20 21:00N 40°38' E 014°23'3 5.1
2018-Jul-20 20:30N 40°39' E 014°20'5 9.9
2018-Jul-20 20:01N 40°35' E 014°16'2 2.7
2018-Jul-20 19:26N 40°34' E 014°15'0 0.0
2018-Jul-20 18:56N 40°34' E 014°15'0 0.0
2018-Jul-20 18:26N 40°34' E 014°15'0 0.0
2018-Jul-20 17:56N 40°34' E 014°15'0 0.0
2018-Jul-20 17:26N 40°34' E 014°15'0 0.0
2018-Jul-20 16:50N 40°34' E 014°15'0 0.0
2018-Jul-20 16:14N 40°34' E 014°15'0 0.0
2018-Jul-20 15:44N 40°34' E 014°15'0 0.0
2018-Jul-20 15:26N 40°34' E 014°15'0 0.0
2018-Jul-20 14:32N 40°34' E 014°15'0 0.0
2018-Jul-20 13:50N 40°34' E 014°15'0 0.0
2018-Jul-20 13:28N 40°34' E 014°15'0 0.1
2018-Jul-20 13:00N 40°34' E 014°15'2 4.5
2018-Jul-20 12:30N 40°35' E 014°12'4 7.9
2018-Jul-20 12:00N 40°35' E 014°07'5 9.4
2018-Jul-20 11:29N 40°35' E 014°00'510.1
2018-Jul-20 10:58N 40°36' E 013°54'5 7.3
2018-Jul-20 10:21N 40°36' E 013°48'0 0.5
2018-Jul-20 10:00N 40°36' E 013°47'0 0.5
2018-Jul-20 09:30N 40°36' E 013°47'0 1.0
2018-Jul-20 09:01N 40°36' E 013°46'1 1.6
2018-Jul-20 08:30N 40°36' E 013°45'1 1.7
2018-Jul-20 07:58N 40°37' E 013°44'1 1.8
2018-Jul-20 07:30N 40°37' E 013°43'1 1.7
2018-Jul-20 07:00N 40°37' E 013°42'3 5.1
2018-Jul-20 06:22N 40°40' E 013°40'4 5.8
2018-Jul-20 05:42N 40°43' E 013°38'1 5.8
2018-Jul-20 05:30N 40°45' E 013°37'3 5.9
2018-Jul-20 05:00N 40°47' E 013°36'4 7.5
2018-Jul-20 04:30N 40°50' E 013°32'4 8.6
2018-Jul-20 04:00N 40°52' E 013°28'5 9.3
2018-Jul-20 03:30N 40°55' E 013°22'5 9.2
2018-Jul-20 03:00N 40°57' E 013°17'5 9.1
2018-Jul-20 02:29N 40°60' E 013°12'5 9.1
2018-Jul-20 01:56N 41°03' E 013°07'4 9.2
2018-Jul-20 01:30N 41°05' E 013°02'7 9.3
2018-Jul-20 00:48N 41°08' E 012°55'3 9.2
2018-Jul-20 00:30N 41°10' E 012°52'5 9.3
2018-Jul-20 00:01N 41°12' E 012°47'5 9.7
2018-Jul-19 23:31N 41°15' E 012°41'5 9.9
2018-Jul-19 23:00N 41°18' E 012°36'510.0
2018-Jul-19 22:31N 41°21' E 012°31'1910.0
2018-Jul-19 20:39N 41°35' E 012°15'210.1
2018-Jul-19 20:29N 41°36' E 012°13'510.1
2018-Jul-19 19:59N 41°40' E 012°09'2510.0
2018-Jul-19 17:29N 41°59' E 011°47'15 1.0
2018-Jul-19 02:39N 42°06' E 011°29'1 8.1
2018-Jul-19 02:30N 42°06' E 011°27'4 7.9
2018-Jul-19 02:00N 42°07' E 011°22'4 7.4
2018-Jul-19 01:30N 42°07' E 011°17'3 6.3
2018-Jul-19 01:00N 42°08' E 011°13'3 6.4
2018-Jul-19 00:30N 42°09' E 011°09'3 6.5
2018-Jul-19 00:00N 42°09' E 011°05'6 6.2
2018-Jul-18 23:05N 42°12' E 010°58'1 6.2
2018-Jul-18 22:57N 42°13' E 010°57'3 6.1
2018-Jul-18 22:30N 42°15' E 010°55'3 6.0
2018-Jul-18 21:57N 42°17' E 010°51'3 6.0
2018-Jul-18 21:30N 42°19' E 010°49'20 5.9
2018-Jul-18 18:04N 42°38' E 010°39'3 5.3
2018-Jul-18 17:35N 42°40' E 010°37'1 5.1
2018-Jul-18 17:24N 42°41' E 010°37'2 5.1
2018-Jul-18 17:00N 42°43' E 010°36'3 5.4
2018-Jul-18 16:29N 42°46' E 010°34'3 5.2
2018-Jul-18 15:49N 42°49' E 010°32'2 5.7
2018-Jul-18 15:30N 42°50' E 010°31'3 6.0
2018-Jul-18 15:00N 42°53' E 010°30'4 7.2
2018-Jul-18 14:30N 42°54' E 010°25'6 6.1
2018-Jul-18 13:30N 42°49' E 010°21'1 1.3
2018-Jul-18 12:41N 42°48' E 010°21'0 0.0
2018-Jul-18 12:23N 42°48' E 010°21'0 0.1
2018-Jul-18 11:43N 42°48' E 010°21'1 3.4
2018-Jul-18 11:24N 42°49' E 010°20'0 0.1
2018-Jul-18 09:56N 42°49' E 010°20'0 0.0
2018-Jul-18 08:38N 42°49' E 010°20'0 0.0
2018-Jul-18 08:14N 42°49' E 010°20'0 0.0
2018-Jul-18 07:09N 42°49' E 010°20'0 0.0
2018-Jul-18 06:56N 42°49' E 010°20'0 0.0
2018-Jul-18 05:32N 42°49' E 010°20'0 0.0
2018-Jul-18 05:20N 42°49' E 010°20'1 2.0
2018-Jul-18 05:00N 42°49' E 010°20'3 5.7
2018-Jul-18 04:30N 42°51' E 010°19'3 5.9
2018-Jul-18 04:00N 42°52' E 010°15'3 5.7
2018-Jul-18 03:30N 42°54' E 010°12'2 4.6
2018-Jul-18 03:00N 42°55' E 010°10'3 5.6
2018-Jul-18 02:30N 42°58' E 010°11'3 5.6
2018-Jul-18 02:00N 43°01' E 010°09'3 5.9
2018-Jul-18 01:30N 43°03' E 010°07'3 5.8
2018-Jul-18 01:00N 43°05' E 010°04'3 5.6
2018-Jul-18 00:30N 43°08' E 010°02'3 5.5
2018-Jul-18 00:00N 43°10' E 009°59'3 5.5
2018-Jul-17 23:30N 43°12' E 009°57'3 5.6
2018-Jul-17 23:00N 43°14' E 009°55'3 5.5
2018-Jul-17 22:30N 43°16' E 009°52'3 5.5
2018-Jul-17 22:00N 43°18' E 009°50'3 5.5
2018-Jul-17 21:30N 43°21' E 009°48'3 5.4
2018-Jul-17 21:01N 43°23' E 009°45'3 5.1
2018-Jul-17 20:30N 43°25' E 009°44'3 5.3
2018-Jul-17 20:00N 43°27' E 009°43'3 5.5
2018-Jul-17 19:30N 43°30' E 009°41'3 5.5
2018-Jul-17 19:00N 43°33' E 009°40'3 5.6
2018-Jul-17 18:30N 43°35' E 009°38'3 5.7
2018-Jul-17 18:00N 43°38' E 009°37'3 5.6
2018-Jul-17 17:30N 43°40' E 009°35'3 5.5
2018-Jul-17 17:00N 43°43' E 009°34'3 5.5
2018-Jul-17 16:30N 43°46' E 009°33'3 5.3
2018-Jul-17 16:00N 43°48' E 009°32'3 5.3
2018-Jul-17 15:30N 43°51' E 009°30'3 6.8
2018-Jul-17 15:00N 43°54' E 009°29'3 6.8
2018-Jul-17 14:31N 43°57' E 009°29'4 7.9
2018-Jul-17 14:00N 44°01' E 009°29'510.0
2018-Jul-17 13:30N 44°06' E 009°28'5 9.9
2018-Jul-17 13:00N 44°11' E 009°26'5 9.6
2018-Jul-17 12:30N 44°14' E 009°22'510.0
2018-Jul-17 12:00N 44°17' E 009°16'2 1.1
2018-Jul-17 10:09N 44°18' E 009°14'0 0.0
2018-Jul-17 10:00N 44°18' E 009°14'0 0.0
2018-Jul-17 07:18N 44°18' E 009°14'0 0.0
2018-Jul-17 06:09N 44°18' E 009°14'0 0.0
2018-Jul-17 05:45N 44°18' E 009°14'0 0.0
2018-Jul-17 05:30N 44°18' E 009°14'2 4.3
2018-Jul-17 05:00N 44°17' E 009°15'3 5.6
2018-Jul-17 04:30N 44°14' E 009°17'3 5.8
2018-Jul-17 04:00N 44°12' E 009°20'2 4.9
2018-Jul-17 03:30N 44°10' E 009°22'4 7.4
2018-Jul-17 03:00N 44°07' E 009°19'4 7.4
2018-Jul-17 02:30N 44°04' E 009°17'4 7.2
2018-Jul-17 01:59N 44°02' E 009°12'3 7.0
2018-Jul-17 01:30N 43°60' E 009°09'3 6.8
2018-Jul-17 01:00N 43°57' E 009°06'3 5.4
2018-Jul-17 00:30N 43°54' E 009°06'6 6.1
2018-Jul-16 23:30N 43°52' E 009°13'3 6.7
2018-Jul-16 23:00N 43°52' E 009°18'2 3.9
2018-Jul-16 22:30N 43°53' E 009°19'4 7.7
2018-Jul-16 21:56N 43°53' E 009°13'3 7.7
2018-Jul-16 21:30N 43°53' E 009°08'4 7.4
2018-Jul-16 21:00N 43°53' E 009°03'3 6.9
2018-Jul-16 20:30N 43°52' E 008°59'4 7.4
2018-Jul-16 20:00N 43°48' E 008°57'5 9.9
2018-Jul-16 19:30N 43°44' E 008°54'510.5
2018-Jul-16 19:00N 43°39' E 008°52'510.6
2018-Jul-16 18:30N 43°34' E 008°49'5 9.9
2018-Jul-16 18:00N 43°30' E 008°46'4 9.0
2018-Jul-16 17:30N 43°28' E 008°40'5 9.6
2018-Jul-16 17:00N 43°31' E 008°35'1 1.0
2018-Jul-16 16:30N 43°31' E 008°34'0 0.6
2018-Jul-16 15:59N 43°31' E 008°35'0 0.5
2018-Jul-16 15:30N 43°31' E 008°35'1 2.1
2018-Jul-16 14:58N 43°32' E 008°36'2 3.7
2018-Jul-16 14:30N 43°33' E 008°38'2 3.8
2018-Jul-16 14:00N 43°34' E 008°40'2 4.1
2018-Jul-16 13:29N 43°35' E 008°43'2 3.3
2018-Jul-16 13:00N 43°36' E 008°44'2 3.0
2018-Jul-16 12:30N 43°37' E 008°46'2 4.3
2018-Jul-16 12:00N 43°38' E 008°49'3 5.0
2018-Jul-16 11:30N 43°39' E 008°52'3 5.1
2018-Jul-16 11:00N 43°39' E 008°55'2 3.8
2018-Jul-16 10:30N 43°40' E 008°58'1 2.6
2018-Jul-16 10:00N 43°40' E 008°60'1 2.3
2018-Jul-16 09:30N 43°39' E 009°01'1 2.9
2018-Jul-16 09:00N 43°38' E 009°03'1 2.1
2018-Jul-16 08:30N 43°38' E 009°04'1 1.5
2018-Jul-16 08:00N 43°37' E 009°05'1 1.3
2018-Jul-16 07:30N 43°37' E 009°05'1 1.5
2018-Jul-16 07:00N 43°36' E 009°05'1 1.9
2018-Jul-16 06:30N 43°35' E 009°05'3 5.5
2018-Jul-16 06:00N 43°32' E 009°04'4 7.6
2018-Jul-16 05:30N 43°29' E 009°03'4 7.6
2018-Jul-16 04:59N 43°25' E 009°02'15 7.6
2018-Jul-16 02:58N 43°10' E 008°57'5 7.7
2018-Jul-16 02:20N 43°05' E 008°56'11 7.6
2018-Jul-16 00:49N 42°54' E 008°52'4 7.4
2018-Jul-16 00:20N 42°50' E 008°51'9 7.2
2018-Jul-15 23:07N 42°42' E 008°48'2 6.8
2018-Jul-15 22:48N 42°40' E 008°48'2 6.7
2018-Jul-15 22:30N 42°38' E 008°47'3 6.8
2018-Jul-15 22:00N 42°34' E 008°46'1 0.1
2018-Jul-15 16:33N 42°34' E 008°46'0 0.0
2018-Jul-15 16:16N 42°34' E 008°46'0 0.0
2018-Jul-15 15:57N 42°34' E 008°46'0 0.0
2018-Jul-15 15:27N 42°34' E 008°46'0 0.0
2018-Jul-15 14:51N 42°34' E 008°46'0 0.0
2018-Jul-15 14:22N 42°34' E 008°46'0 0.0
2018-Jul-15 12:40N 42°34' E 008°46'0 0.0
2018-Jul-15 12:16N 42°34' E 008°46'0 0.0
2018-Jul-15 11:58N 42°34' E 008°46'0 0.0
2018-Jul-15 10:37N 42°34' E 008°46'0 1.5
2018-Jul-15 10:29N 42°34' E 008°47'4 7.2
2018-Jul-15 10:00N 42°37' E 008°43'4 7.2
2018-Jul-15 09:30N 42°39' E 008°39'11 2.9
2018-Jul-15 05:32N 42°43' E 008°25'0 5.2
2018-Jul-15 05:30N 42°43' E 008°25'98 6.3
2018-Jul-14 13:48N 41°19' E 009°33'1 4.2
2018-Jul-14 13:28N 41°18' E 009°35'2 4.0
2018-Jul-14 12:53N 41°16' E 009°37'6 0.8
2018-Jul-14 04:54N 41°10' E 009°36'2 6.2
2018-Jul-14 04:30N 41°10' E 009°40'3 6.0
2018-Jul-14 04:00N 41°11' E 009°43'5 6.0
2018-Jul-14 03:06N 41°13' E 009°50'1 5.9
2018-Jul-14 03:00N 41°13' E 009°51'3 4.6
2018-Jul-14 02:23N 41°16' E 009°52'5 4.9
2018-Jul-14 01:23N 41°17' E 009°46'18 0.8
2018-Jul-13 03:11N 41°33' E 009°57'1 7.1
2018-Jul-13 03:00N 41°34' E 009°59'14 7.1
2018-Jul-13 01:04N 41°39' E 010°16'3 6.9
2018-Jul-13 00:41N 41°40' E 010°19'  
Track history (hours):
 
Tides and Currents Weather Stations Pressure Air Temp Water Temp Dewpoint Dewpoint Depression Visibility Wind Speed Wind Dir Waves Ship Positions

Sea Cloud

Ship's website: http://www.seacloud.com/en/the-ships/sea-cloud.html

Last reported at 2018-Jul-22 16:22 UTC. Time now 2018-Jul-22 16:41 UTC.
Position N 41°14' E 012°48'.

Length 110 m; draft 5.2 m.

Type: Ship. MMSI: 256084000.

Date/timePositionNaut miles runAvg speedWind from/ knotsBaromVisibWave heightAir tempDewpointWater temp
2018-Jul-22 16:22N 41°14' E 012°48'19 8.3
2018-Jul-22 14:04N 41°09' E 013°12'0 3.5
2018-Jul-22 13:59N 41°09' E 013°12'29 3.1
2018-Jul-22 04:39N 40°41' E 013°02'210.2
2018-Jul-22 04:27N 40°40' E 013°03'17 9.8
2018-Jul-22 02:44N 40°35' E 013°25'2 9.6
2018-Jul-22 02:30N 40°35' E 013°28'5 9.6
2018-Jul-22 02:00N 40°34' E 013°34'5 9.6
2018-Jul-22 01:30N 40°33' E 013°40'5 9.6
2018-Jul-22 00:59N 40°32' E 013°46'5 9.5
2018-Jul-22 00:30N 40°32' E 013°52'5 9.8
2018-Jul-22 00:00N 40°31' E 013°59'510.1
2018-Jul-21 23:30N 40°30' E 014°05'510.5
2018-Jul-21 23:00N 40°30' E 014°12'510.4
2018-Jul-21 22:30N 40°31' E 014°19'510.8
2018-Jul-21 22:00N 40°33' E 014°25'511.0
2018-Jul-21 21:30N 40°35' E 014°32'3 0.4
2018-Jul-21 13:55N 40°36' E 014°35'4 9.4
2018-Jul-21 13:30N 40°35' E 014°31'5 9.5
2018-Jul-21 13:00N 40°33' E 014°25'5 9.5
2018-Jul-21 12:30N 40°33' E 014°19'4 7.2
2018-Jul-21 12:00N 40°36' E 014°18'4 8.3
2018-Jul-21 11:30N 40°39' E 014°21'1 2.4
2018-Jul-21 10:53N 40°38' E 014°23'0 0.0
2018-Jul-21 10:05N 40°38' E 014°23'0 0.0
2018-Jul-21 09:53N 40°38' E 014°23'0 0.0
2018-Jul-21 09:23N 40°38' E 014°23'0 0.0
2018-Jul-21 08:53N 40°38' E 014°23'0 0.0
2018-Jul-21 08:23N 40°38' E 014°23'0 0.1
2018-Jul-21 07:59N 40°38' E 014°23'0 0.0
2018-Jul-21 07:29N 40°38' E 014°23'0 0.0
2018-Jul-21 06:41N 40°38' E 014°23'0 0.1
2018-Jul-21 06:29N 40°38' E 014°23'0 0.0
2018-Jul-21 05:59N 40°38' E 014°23'0 0.0
2018-Jul-21 05:29N 40°38' E 014°23'0 0.0
2018-Jul-21 04:59N 40°38' E 014°23'0 0.0
2018-Jul-21 04:29N 40°38' E 014°23'0 0.0
2018-Jul-21 03:59N 40°38' E 014°23'0 0.0
2018-Jul-21 03:29N 40°38' E 014°23'0 0.0
2018-Jul-21 02:59N 40°38' E 014°23'0 0.0
2018-Jul-21 02:29N 40°38' E 014°23'0 0.0
2018-Jul-21 01:59N 40°38' E 014°23'0 0.0
2018-Jul-21 01:29N 40°38' E 014°23'0 0.0
2018-Jul-21 00:59N 40°38' E 014°23'0 0.1
2018-Jul-21 00:29N 40°38' E 014°23'0 0.0
2018-Jul-20 23:59N 40°38' E 014°23'0 0.0
2018-Jul-20 23:29N 40°38' E 014°23'0 0.0
2018-Jul-20 22:53N 40°38' E 014°23'0 0.0
2018-Jul-20 22:29N 40°38' E 014°23'0 0.0
2018-Jul-20 21:53N 40°38' E 014°23'0 0.0
2018-Jul-20 21:26N 40°38' E 014°23'0 0.0
2018-Jul-20 21:00N 40°38' E 014°23'3 5.1
2018-Jul-20 20:30N 40°39' E 014°20'5 9.9
2018-Jul-20 20:01N 40°35' E 014°16'2 2.7
2018-Jul-20 19:26N 40°34' E 014°15'0 0.0
2018-Jul-20 18:56N 40°34' E 014°15'0 0.0
2018-Jul-20 18:26N 40°34' E 014°15'0 0.0
2018-Jul-20 17:56N 40°34' E 014°15'0 0.0
2018-Jul-20 17:26N 40°34' E 014°15'0 0.0
2018-Jul-20 16:50N 40°34' E 014°15'0 0.0
2018-Jul-20 16:14N 40°34' E 014°15'0 0.0
2018-Jul-20 15:44N 40°34' E 014°15'0 0.0
2018-Jul-20 15:26N 40°34' E 014°15'0 0.0
2018-Jul-20 14:32N 40°34' E 014°15'0 0.0
2018-Jul-20 13:50N 40°34' E 014°15'0 0.0
2018-Jul-20 13:28N 40°34' E 014°15'0 0.1
2018-Jul-20 13:00N 40°34' E 014°15'2 4.5
2018-Jul-20 12:30N 40°35' E 014°12'4 7.9
2018-Jul-20 12:00N 40°35' E 014°07'5 9.4
2018-Jul-20 11:29N 40°35' E 014°00'510.1
2018-Jul-20 10:58N 40°36' E 013°54'5 7.3
2018-Jul-20 10:21N 40°36' E 013°48'0 0.5
2018-Jul-20 10:00N 40°36' E 013°47'0 0.5
2018-Jul-20 09:30N 40°36' E 013°47'0 1.0
2018-Jul-20 09:01N 40°36' E 013°46'1 1.6
2018-Jul-20 08:30N 40°36' E 013°45'1 1.7
2018-Jul-20 07:58N 40°37' E 013°44'1 1.8
2018-Jul-20 07:30N 40°37' E 013°43'1 1.7
2018-Jul-20 07:00N 40°37' E 013°42'3 5.1
2018-Jul-20 06:22N 40°40' E 013°40'4 5.8
2018-Jul-20 05:42N 40°43' E 013°38'1 5.8
2018-Jul-20 05:30N 40°45' E 013°37'3 5.9
2018-Jul-20 05:00N 40°47' E 013°36'4 7.5
2018-Jul-20 04:30N 40°50' E 013°32'4 8.6
2018-Jul-20 04:00N 40°52' E 013°28'5 9.3
2018-Jul-20 03:30N 40°55' E 013°22'5 9.2
2018-Jul-20 03:00N 40°57' E 013°17'5 9.1
2018-Jul-20 02:29N 40°60' E 013°12'5 9.1
2018-Jul-20 01:56N 41°03' E 013°07'4 9.2
2018-Jul-20 01:30N 41°05' E 013°02'7 9.3
2018-Jul-20 00:48N 41°08' E 012°55'3 9.2
2018-Jul-20 00:30N 41°10' E 012°52'5 9.3
2018-Jul-20 00:01N 41°12' E 012°47'5 9.7
2018-Jul-19 23:31N 41°15' E 012°41'5 9.9
2018-Jul-19 23:00N 41°18' E 012°36'510.0
2018-Jul-19 22:31N 41°21' E 012°31'1910.0
2018-Jul-19 20:39N 41°35' E 012°15'210.1
2018-Jul-19 20:29N 41°36' E 012°13'510.1
2018-Jul-19 19:59N 41°40' E 012°09'2510.0
2018-Jul-19 17:29N 41°59' E 011°47'15 1.0
2018-Jul-19 02:39N 42°06' E 011°29'1 8.1
2018-Jul-19 02:30N 42°06' E 011°27'4 7.9
2018-Jul-19 02:00N 42°07' E 011°22'4 7.4
2018-Jul-19 01:30N 42°07' E 011°17'3 6.3
2018-Jul-19 01:00N 42°08' E 011°13'3 6.4
2018-Jul-19 00:30N 42°09' E 011°09'3 6.5
2018-Jul-19 00:00N 42°09' E 011°05'6 6.2
2018-Jul-18 23:05N 42°12' E 010°58'1 6.2
2018-Jul-18 22:57N 42°13' E 010°57'3 6.1
2018-Jul-18 22:30N 42°15' E 010°55'3 6.0
2018-Jul-18 21:57N 42°17' E 010°51'3 6.0
2018-Jul-18 21:30N 42°19' E 010°49'20 5.9
2018-Jul-18 18:04N 42°38' E 010°39'3 5.3
2018-Jul-18 17:35N 42°40' E 010°37'1 5.1
2018-Jul-18 17:24N 42°41' E 010°37'2 5.1
2018-Jul-18 17:00N 42°43' E 010°36'3 5.4
2018-Jul-18 16:29N 42°46' E 010°34'3 5.2
2018-Jul-18 15:49N 42°49' E 010°32'2 5.7
2018-Jul-18 15:30N 42°50' E 010°31'3 6.0
2018-Jul-18 15:00N 42°53' E 010°30'4 7.2
2018-Jul-18 14:30N 42°54' E 010°25'6 6.1
2018-Jul-18 13:30N 42°49' E 010°21'1 1.3
2018-Jul-18 12:41N 42°48' E 010°21'0 0.0
2018-Jul-18 12:23N 42°48' E 010°21'0 0.1
2018-Jul-18 11:43N 42°48' E 010°21'1 3.4
2018-Jul-18 11:24N 42°49' E 010°20'0 0.1
2018-Jul-18 09:56N 42°49' E 010°20'0 0.0
2018-Jul-18 08:38N 42°49' E 010°20'0 0.0
2018-Jul-18 08:14N 42°49' E 010°20'0 0.0
2018-Jul-18 07:09N 42°49' E 010°20'0 0.0
2018-Jul-18 06:56N 42°49' E 010°20'0 0.0
2018-Jul-18 05:32N 42°49' E 010°20'0 0.0
2018-Jul-18 05:20N 42°49' E 010°20'1 2.0
2018-Jul-18 05:00N 42°49' E 010°20'3 5.7
2018-Jul-18 04:30N 42°51' E 010°19'3 5.9
2018-Jul-18 04:00N 42°52' E 010°15'3 5.7
2018-Jul-18 03:30N 42°54' E 010°12'2 4.6
2018-Jul-18 03:00N 42°55' E 010°10'3 5.6
2018-Jul-18 02:30N 42°58' E 010°11'3 5.6
2018-Jul-18 02:00N 43°01' E 010°09'3 5.9
2018-Jul-18 01:30N 43°03' E 010°07'3 5.8
2018-Jul-18 01:00N 43°05' E 010°04'3 5.6
2018-Jul-18 00:30N 43°08' E 010°02'3 5.5
2018-Jul-18 00:00N 43°10' E 009°59'3 5.5
2018-Jul-17 23:30N 43°12' E 009°57'3 5.6
2018-Jul-17 23:00N 43°14' E 009°55'3 5.5
2018-Jul-17 22:30N 43°16' E 009°52'3 5.5
2018-Jul-17 22:00N 43°18' E 009°50'3 5.5
2018-Jul-17 21:30N 43°21' E 009°48'3 5.4
2018-Jul-17 21:01N 43°23' E 009°45'3 5.1
2018-Jul-17 20:30N 43°25' E 009°44'3 5.3
2018-Jul-17 20:00N 43°27' E 009°43'3 5.5
2018-Jul-17 19:30N 43°30' E 009°41'3 5.5
2018-Jul-17 19:00N 43°33' E 009°40'3 5.6
2018-Jul-17 18:30N 43°35' E 009°38'3 5.7
2018-Jul-17 18:00N 43°38' E 009°37'3 5.6
2018-Jul-17 17:30N 43°40' E 009°35'3 5.5
2018-Jul-17 17:00N 43°43' E 009°34'3 5.5
2018-Jul-17 16:30N 43°46' E 009°33'3 5.3
2018-Jul-17 16:00N 43°48' E 009°32'3 5.3
2018-Jul-17 15:30N 43°51' E 009°30'3 6.8
2018-Jul-17 15:00N 43°54' E 009°29'3 6.8
2018-Jul-17 14:31N 43°57' E 009°29'4 7.9
2018-Jul-17 14:00N 44°01' E 009°29'510.0
2018-Jul-17 13:30N 44°06' E 009°28'5 9.9
2018-Jul-17 13:00N 44°11' E 009°26'5 9.6
2018-Jul-17 12:30N 44°14' E 009°22'510.0
2018-Jul-17 12:00N 44°17' E 009°16'2 1.1
2018-Jul-17 10:09N 44°18' E 009°14'0 0.0
2018-Jul-17 10:00N 44°18' E 009°14'0 0.0
2018-Jul-17 07:18N 44°18' E 009°14'0 0.0
2018-Jul-17 06:09N 44°18' E 009°14'0 0.0
2018-Jul-17 05:45N 44°18' E 009°14'0 0.0
2018-Jul-17 05:30N 44°18' E 009°14'2 4.3
2018-Jul-17 05:00N 44°17' E 009°15'3 5.6
2018-Jul-17 04:30N 44°14' E 009°17'3 5.8
2018-Jul-17 04:00N 44°12' E 009°20'2 4.9
2018-Jul-17 03:30N 44°10' E 009°22'4 7.4
2018-Jul-17 03:00N 44°07' E 009°19'4 7.4
2018-Jul-17 02:30N 44°04' E 009°17'4 7.2
2018-Jul-17 01:59N 44°02' E 009°12'3 7.0
2018-Jul-17 01:30N 43°60' E 009°09'3 6.8
2018-Jul-17 01:00N 43°57' E 009°06'3 5.4
2018-Jul-17 00:30N 43°54' E 009°06'6 6.1
2018-Jul-16 23:30N 43°52' E 009°13'3 6.7
2018-Jul-16 23:00N 43°52' E 009°18'2 3.9
2018-Jul-16 22:30N 43°53' E 009°19'4 7.7
2018-Jul-16 21:56N 43°53' E 009°13'3 7.7
2018-Jul-16 21:30N 43°53' E 009°08'4 7.4
2018-Jul-16 21:00N 43°53' E 009°03'3 6.9
2018-Jul-16 20:30N 43°52' E 008°59'4 7.4
2018-Jul-16 20:00N 43°48' E 008°57'5 9.9
2018-Jul-16 19:30N 43°44' E 008°54'510.5
2018-Jul-16 19:00N 43°39' E 008°52'510.6
2018-Jul-16 18:30N 43°34' E 008°49'5 9.9
2018-Jul-16 18:00N 43°30' E 008°46'4 9.0
2018-Jul-16 17:30N 43°28' E 008°40'5 9.6
2018-Jul-16 17:00N 43°31' E 008°35'1 1.0
2018-Jul-16 16:30N 43°31' E 008°34'0 0.6
2018-Jul-16 15:59N 43°31' E 008°35'0 0.5
2018-Jul-16 15:30N 43°31' E 008°35'1 2.1
2018-Jul-16 14:58N 43°32' E 008°36'2 3.7
2018-Jul-16 14:30N 43°33' E 008°38'2 3.8
2018-Jul-16 14:00N 43°34' E 008°40'2 4.1
2018-Jul-16 13:29N 43°35' E 008°43'2 3.3
2018-Jul-16 13:00N 43°36' E 008°44'2 3.0
2018-Jul-16 12:30N 43°37' E 008°46'2 4.3
2018-Jul-16 12:00N 43°38' E 008°49'3 5.0
2018-Jul-16 11:30N 43°39' E 008°52'3 5.1
2018-Jul-16 11:00N 43°39' E 008°55'2 3.8
2018-Jul-16 10:30N 43°40' E 008°58'1 2.6
2018-Jul-16 10:00N 43°40' E 008°60'1 2.3
2018-Jul-16 09:30N 43°39' E 009°01'1 2.9
2018-Jul-16 09:00N 43°38' E 009°03'1 2.1
2018-Jul-16 08:30N 43°38' E 009°04'1 1.5
2018-Jul-16 08:00N 43°37' E 009°05'1 1.3
2018-Jul-16 07:30N 43°37' E 009°05'1 1.5
2018-Jul-16 07:00N 43°36' E 009°05'1 1.9
2018-Jul-16 06:30N 43°35' E 009°05'3 5.5
2018-Jul-16 06:00N 43°32' E 009°04'4 7.6
2018-Jul-16 05:30N 43°29' E 009°03'4 7.6
2018-Jul-16 04:59N 43°25' E 009°02'15 7.6
2018-Jul-16 02:58N 43°10' E 008°57'5 7.7
2018-Jul-16 02:20N 43°05' E 008°56'11 7.6
2018-Jul-16 00:49N 42°54' E 008°52'4 7.4
2018-Jul-16 00:20N 42°50' E 008°51'9 7.2
2018-Jul-15 23:07N 42°42' E 008°48'2 6.8
2018-Jul-15 22:48N 42°40' E 008°48'2 6.7
2018-Jul-15 22:30N 42°38' E 008°47'3 6.8
2018-Jul-15 22:00N 42°34' E 008°46'1 0.1
2018-Jul-15 16:33N 42°34' E 008°46'0 0.0
2018-Jul-15 16:16N 42°34' E 008°46'0 0.0
2018-Jul-15 15:57N 42°34' E 008°46'0 0.0
2018-Jul-15 15:27N 42°34' E 008°46'0 0.0
2018-Jul-15 14:51N 42°34' E 008°46'0 0.0
2018-Jul-15 14:22N 42°34' E 008°46'0 0.0
2018-Jul-15 12:40N 42°34' E 008°46'0 0.0
2018-Jul-15 12:16N 42°34' E 008°46'0 0.0
2018-Jul-15 11:58N 42°34' E 008°46'0 0.0
2018-Jul-15 10:37N 42°34' E 008°46'0 1.5
2018-Jul-15 10:29N 42°34' E 008°47'4 7.2
2018-Jul-15 10:00N 42°37' E 008°43'4 7.2
2018-Jul-15 09:30N 42°39' E 008°39'11 2.9
2018-Jul-15 05:32N 42°43' E 008°25'0 5.2
2018-Jul-15 05:30N 42°43' E 008°25'98 6.3
2018-Jul-14 13:48N 41°19' E 009°33'1 4.2
2018-Jul-14 13:28N 41°18' E 009°35'2 4.0
2018-Jul-14 12:53N 41°16' E 009°37'6 0.8
2018-Jul-14 04:54N 41°10' E 009°36'2 6.2
2018-Jul-14 04:30N 41°10' E 009°40'3 6.0
2018-Jul-14 04:00N 41°11' E 009°43'5 6.0
2018-Jul-14 03:06N 41°13' E 009°50'1 5.9
2018-Jul-14 03:00N 41°13' E 009°51'3 4.6
2018-Jul-14 02:23N 41°16' E 009°52'5 4.9
2018-Jul-14 01:23N 41°17' E 009°46'18 0.8
2018-Jul-13 03:11N 41°33' E 009°57'1 7.1
2018-Jul-13 03:00N 41°34' E 009°59'14 7.1
2018-Jul-13 01:04N 41°39' E 010°16'3 6.9
2018-Jul-13 00:41N 41°40' E 010°19'  

Dump ship's entire track history